Time;durP1;ratioP1;P1;durP2;ratioP2;P2;SDS_P1;SDS_P2;PMS_P1;PMS_P2;Temp;Humidity;BMP_temperature;BMP_pressure;BME280_temperature;BME280_humidity;BME280_pressure;Samples;Min_cycle;Max_cycle;Signal;HPM_P1;HPM_P2
2023/08/31 00:01:06;;;;;;;2.20;1.50;;;;;;;;;;5023858;28;20426;-59
2023/08/31 00:03:31;;;;;;;3.80;1.60;;;;;;;;;;5032666;28;20409;-59
2023/08/31 00:05:57;;;;;;;3.03;1.70;;;;;;;;;;5033339;28;20397;-59
2023/08/31 00:08:22;;;;;;;2.95;1.60;;;;;;;;;;5029440;28;20465;-59
2023/08/31 00:10:54;;;;;;;2.40;1.50;;;;;;;;;;5032854;28;20411;-59
2023/08/31 00:13:20;;;;;;;2.90;1.70;;;;;;;;;;5033595;28;20407;-59
2023/08/31 00:15:46;;;;;;;2.80;1.33;;;;;;;;;;5031932;28;20406;-59
2023/08/31 00:18:12;;;;;;;3.38;1.77;;;;;;;;;;5033910;28;20428;-59
2023/08/31 00:20:37;;;;;;;3.35;1.80;;;;;;;;;;5032054;28;20445;-59
2023/08/31 00:23:03;;;;;;;3.23;1.80;;;;;;;;;;5030323;28;20431;-60
2023/08/31 00:25:28;;;;;;;3.53;1.90;;;;;;;;;;5033657;28;20397;-59
2023/08/31 00:27:54;;;;;;;3.90;2.00;;;;;;;;;;5035222;28;20545;-59
2023/08/31 00:30:20;;;;;;;3.97;2.13;;;;;;;;;;5032300;28;20441;-59
2023/08/31 00:32:47;;;;;;;3.10;1.77;;;;;;;;;;5028134;28;20411;-59
2023/08/31 00:35:12;;;;;;;3.90;1.98;;;;;;;;;;5026866;28;20456;-59
2023/08/31 00:37:38;;;;;;;5.00;2.20;;;;;;;;;;5036338;28;20397;-59
2023/08/31 00:40:04;;;;;;;3.47;1.92;;;;;;;;;;5030764;28;20788;-59
2023/08/31 00:42:30;;;;;;;4.00;2.00;;;;;;;;;;5030289;28;20522;-59
2023/08/31 00:44:55;;;;;;;4.00;2.10;;;;;;;;;;5032174;28;20440;-59
2023/08/31 00:47:20;;;;;;;3.97;2.50;;;;;;;;;;5032802;28;20398;-59
2023/08/31 00:49:46;;;;;;;3.67;2.20;;;;;;;;;;5031645;28;20426;-59
2023/08/31 00:52:11;;;;;;;4.77;2.50;;;;;;;;;;5033956;28;20536;-59
2023/08/31 00:54:36;;;;;;;4.10;2.20;;;;;;;;;;5031168;28;20767;-59
2023/08/31 00:57:03;;;;;;;4.53;2.40;;;;;;;;;;5026743;28;20406;-59
2023/08/31 00:59:29;;;;;;;7.55;3.13;;;;;;;;;;5035453;28;20759;-59
2023/08/31 01:02:01;;;;;;;5.35;2.45;;;;;;;;;;5034716;28;20417;-59
2023/08/31 01:04:31;;;;;;;4.55;2.13;;;;;;;;;;5040646;28;20400;-59
2023/08/31 01:06:57;;;;;;;4.80;2.40;;;;;;;;;;5040869;28;20496;-59
2023/08/31 01:09:28;;;;;;;5.75;2.53;;;;;;;;;;5034054;28;20573;-59
2023/08/31 01:11:58;;;;;;;5.68;2.60;;;;;;;;;;5026665;28;20394;-59
2023/08/31 01:14:24;;;;;;;5.20;2.28;;;;;;;;;;5026600;28;20396;-59
2023/08/31 01:16:49;;;;;;;3.72;2.25;;;;;;;;;;5021102;28;20453;-59
2023/08/31 01:19:17;;;;;;;5.37;2.20;;;;;;;;;;5021971;28;20404;-59
2023/08/31 01:21:43;;;;;;;4.97;2.72;;;;;;;;;;5019271;28;20411;-59
2023/08/31 01:24:08;;;;;;;5.20;2.53;;;;;;;;;;5017329;28;20486;-59
2023/08/31 01:26:33;;;;;;;4.83;2.40;;;;;;;;;;4986899;28;20418;-59
2023/08/31 01:28:59;;;;;;;6.00;2.77;;;;;;;;;;4989108;28;20434;-59
2023/08/31 01:31:24;;;;;;;5.88;2.80;;;;;;;;;;4990431;28;20411;-59
2023/08/31 01:33:50;;;;;;;6.00;2.67;;;;;;;;;;4986841;28;20395;-59
2023/08/31 01:36:23;;;;;;;5.00;2.83;;;;;;;;;;4988238;28;20423;-59
2023/08/31 01:38:50;;;;;;;5.88;2.70;;;;;;;;;;4995824;28;20444;-59
2023/08/31 01:41:17;;;;;;;5.70;2.90;;;;;;;;;;4998771;28;20466;-59
2023/08/31 01:43:42;;;;;;;6.68;2.90;;;;;;;;;;4993567;28;20406;-59
2023/08/31 01:46:08;;;;;;;6.17;3.50;;;;;;;;;;4980256;28;20413;-59
2023/08/31 01:48:40;;;;;;;5.63;3.50;;;;;;;;;;4988196;28;20769;-59
2023/08/31 01:51:06;;;;;;;6.37;4.13;;;;;;;;;;4986393;28;20936;-59
2023/08/31 01:53:31;;;;;;;6.75;4.07;;;;;;;;;;4987538;28;20402;-59
2023/08/31 01:55:57;;;;;;;7.03;4.07;;;;;;;;;;4991145;28;20425;-59
2023/08/31 01:58:22;;;;;;;6.30;3.95;;;;;;;;;;4987006;28;20400;-59
2023/08/31 02:00:48;;;;;;;6.70;4.55;;;;;;;;;;4987109;28;20537;-59
2023/08/31 02:03:13;;;;;;;7.53;4.93;;;;;;;;;;4985203;28;20414;-59
2023/08/31 02:05:38;;;;;;;7.70;5.73;;;;;;;;;;4982861;28;20407;-59
2023/08/31 02:08:03;;;;;;;8.43;6.10;;;;;;;;;;4980473;28;20742;-60
2023/08/31 02:10:29;;;;;;;8.27;6.20;;;;;;;;;;4985780;28;20785;-59
2023/08/31 02:12:54;;;;;;;9.48;6.57;;;;;;;;;;4992388;28;20415;-59
2023/08/31 02:15:20;;;;;;;9.30;5.83;;;;;;;;;;4990684;28;20398;-59
2023/08/31 02:17:45;;;;;;;9.83;6.97;;;;;;;;;;4992437;28;20999;-59
2023/08/31 02:20:11;;;;;;;10.97;7.40;;;;;;;;;;4992664;28;20520;-59
2023/08/31 02:22:36;;;;;;;11.00;7.32;;;;;;;;;;4993500;28;20422;-59
2023/08/31 02:25:01;;;;;;;10.70;7.47;;;;;;;;;;4988701;28;20945;-60
2023/08/31 02:27:27;;;;;;;11.57;7.80;;;;;;;;;;4988383;28;20411;-59
2023/08/31 02:29:52;;;;;;;10.50;7.37;;;;;;;;;;4992707;28;20987;-59
2023/08/31 02:32:17;;;;;;;9.90;7.80;;;;;;;;;;4990905;28;20421;-59
2023/08/31 02:34:43;;;;;;;12.07;8.50;;;;;;;;;;5015379;28;20396;-59
2023/08/31 02:37:08;;;;;;;10.57;7.43;;;;;;;;;;5020900;28;21228;-59
2023/08/31 02:39:33;;;;;;;8.90;7.03;;;;;;;;;;5025369;28;20428;-59
2023/08/31 02:41:58;;;;;;;8.60;6.80;;;;;;;;;;5025876;28;20405;-59
2023/08/31 02:44:24;;;;;;;12.33;8.40;;;;;;;;;;5021767;28;20383;-59
2023/08/31 02:46:49;;;;;;;10.83;8.60;;;;;;;;;;5019386;28;20399;-59
2023/08/31 02:49:14;;;;;;;9.90;8.60;;;;;;;;;;5035011;28;20419;-59
2023/08/31 02:51:40;;;;;;;10.43;8.07;;;;;;;;;;5036564;28;20447;-59
2023/08/31 02:54:05;;;;;;;11.47;8.70;;;;;;;;;;5024859;28;20447;-59
2023/08/31 02:56:30;;;;;;;10.60;8.80;;;;;;;;;;5025635;28;20407;-59
2023/08/31 02:58:56;;;;;;;11.85;8.85;;;;;;;;;;5026466;28;20403;-59
2023/08/31 03:01:21;;;;;;;11.73;8.27;;;;;;;;;;5031744;28;20458;-59
2023/08/31 03:03:47;;;;;;;11.10;8.60;;;;;;;;;;5021534;28;20419;-59
2023/08/31 03:06:12;;;;;;;11.63;9.10;;;;;;;;;;5027294;28;20897;-59
2023/08/31 03:08:37;;;;;;;13.40;8.63;;;;;;;;;;5025018;28;20802;-59
2023/08/31 03:11:03;;;;;;;13.05;9.10;;;;;;;;;;5020842;28;20422;-60
2023/08/31 03:13:28;;;;;;;12.90;9.60;;;;;;;;;;5025769;28;20999;-59
2023/08/31 03:15:54;;;;;;;11.03;9.30;;;;;;;;;;5025289;28;20449;-59
2023/08/31 03:18:19;;;;;;;10.93;8.47;;;;;;;;;;5031608;28;20405;-59
2023/08/31 03:20:44;;;;;;;11.13;9.00;;;;;;;;;;5035929;28;20908;-59
2023/08/31 03:23:11;;;;;;;12.77;8.75;;;;;;;;;;5034924;28;20973;-60
2023/08/31 03:25:36;;;;;;;13.02;10.10;;;;;;;;;;5031146;28;20399;-60
2023/08/31 03:28:02;;;;;;;10.57;8.63;;;;;;;;;;5030153;28;20423;-61
2023/08/31 03:30:27;;;;;;;11.65;9.20;;;;;;;;;;5027550;28;20418;-61
2023/08/31 03:32:53;;;;;;;10.33;7.83;;;;;;;;;;5029339;28;20409;-60
2023/08/31 03:35:18;;;;;;;11.13;8.40;;;;;;;;;;5020244;28;20412;-60
2023/08/31 03:37:46;;;;;;;9.80;8.27;;;;;;;;;;5034819;28;20422;-60
2023/08/31 03:40:11;;;;;;;9.82;7.70;;;;;;;;;;5033897;28;20442;-60
2023/08/31 03:42:37;;;;;;;12.80;8.67;;;;;;;;;;5027773;28;20419;-60
2023/08/31 03:45:03;;;;;;;10.87;8.20;;;;;;;;;;5009531;28;20492;-60
2023/08/31 03:47:29;;;;;;;12.82;10.38;;;;;;;;;;4990318;28;20525;-60
2023/08/31 03:49:54;;;;;;;11.30;8.27;;;;;;;;;;4989799;28;20906;-60
2023/08/31 03:52:19;;;;;;;14.90;10.13;;;;;;;;;;4993045;28;20398;-60
2023/08/31 03:54:44;;;;;;;12.20;9.67;;;;;;;;;;4989838;28;20403;-60
2023/08/31 03:57:10;;;;;;;14.43;10.17;;;;;;;;;;4989567;28;20417;-60
2023/08/31 03:59:35;;;;;;;12.00;9.60;;;;;;;;;;4988472;28;20412;-59
2023/08/31 04:02:00;;;;;;;12.47;10.13;;;;;;;;;;4984524;28;20415;-61
2023/08/31 04:04:26;;;;;;;11.40;10.07;;;;;;;;;;4982914;28;20411;-60
2023/08/31 04:06:51;;;;;;;12.80;10.80;;;;;;;;;;4988990;28;20568;-60
2023/08/31 04:09:17;;;;;;;17.03;11.80;;;;;;;;;;4991751;28;20426;-60
2023/08/31 04:11:42;;;;;;;14.18;10.48;;;;;;;;;;5002664;28;20508;-60
2023/08/31 04:14:07;;;;;;;12.10;9.93;;;;;;;;;;5007523;28;20527;-60
2023/08/31 04:16:33;;;;;;;12.93;10.57;;;;;;;;;;5014763;28;20443;-60
2023/08/31 04:18:58;;;;;;;12.33;9.50;;;;;;;;;;5009713;28;22006;-60
2023/08/31 04:21:23;;;;;;;13.87;11.13;;;;;;;;;;4997654;28;20428;-60
2023/08/31 04:23:49;;;;;;;13.85;10.88;;;;;;;;;;4999076;28;20557;-60
2023/08/31 04:26:14;;;;;;;16.03;12.07;;;;;;;;;;4989575;28;20465;-60
2023/08/31 04:28:41;;;;;;;16.93;12.50;;;;;;;;;;4985960;28;20434;-60
2023/08/31 04:31:07;;;;;;;13.63;11.87;;;;;;;;;;4993075;28;20406;-60
2023/08/31 04:33:34;;;;;;;12.75;11.05;;;;;;;;;;4993169;28;20930;-60
2023/08/31 04:35:59;;;;;;;12.07;10.75;;;;;;;;;;4989263;28;20477;-60
2023/08/31 04:38:24;;;;;;;15.37;11.00;;;;;;;;;;4987716;28;20774;-60
2023/08/31 04:40:50;;;;;;;15.63;11.40;;;;;;;;;;4992733;28;20432;-60
2023/08/31 04:43:15;;;;;;;14.67;11.90;;;;;;;;;;4988101;28;20495;-60
2023/08/31 04:45:40;;;;;;;13.93;12.45;;;;;;;;;;4981527;28;20554;-60
2023/08/31 04:48:06;;;;;;;13.00;11.27;;;;;;;;;;4982319;28;21171;-60
2023/08/31 04:50:31;;;;;;;17.03;13.40;;;;;;;;;;4987958;28;20824;-60
2023/08/31 04:52:56;;;;;;;19.30;16.07;;;;;;;;;;5000760;28;20402;-60
2023/08/31 04:55:22;;;;;;;17.03;12.73;;;;;;;;;;4998975;28;20402;-60
2023/08/31 04:57:47;;;;;;;13.27;11.53;;;;;;;;;;4992129;28;20422;-60
2023/08/31 05:00:13;;;;;;;14.07;11.53;;;;;;;;;;4987836;28;21054;-60
2023/08/31 05:02:38;;;;;;;15.02;12.07;;;;;;;;;;4987122;28;20406;-60
2023/08/31 05:05:04;;;;;;;16.20;12.33;;;;;;;;;;4992130;28;20414;-60
2023/08/31 05:07:30;;;;;;;13.18;10.30;;;;;;;;;;4983579;28;20403;-60
2023/08/31 05:09:55;;;;;;;17.00;12.20;;;;;;;;;;4980168;28;20426;-60
2023/08/31 05:12:20;;;;;;;14.23;9.77;;;;;;;;;;4994148;28;20393;-60
2023/08/31 05:14:45;;;;;;;14.60;9.77;;;;;;;;;;5008546;28;20466;-60
2023/08/31 05:17:11;;;;;;;13.95;10.00;;;;;;;;;;5025575;28;20416;-61
2023/08/31 05:19:36;;;;;;;12.25;8.88;;;;;;;;;;5036405;28;20891;-60
2023/08/31 05:22:01;;;;;;;12.53;7.90;;;;;;;;;;5026830;28;20423;-60
2023/08/31 05:24:27;;;;;;;11.67;8.77;;;;;;;;;;5035297;28;20410;-61
2023/08/31 05:26:52;;;;;;;15.33;9.50;;;;;;;;;;5034993;28;20398;-61
2023/08/31 05:29:17;;;;;;;13.30;8.47;;;;;;;;;;5027074;28;20849;-61
2023/08/31 05:31:43;;;;;;;11.07;8.13;;;;;;;;;;5025043;28;20411;-61
2023/08/31 05:34:10;;;;;;;11.07;9.00;;;;;;;;;;5030739;28;20406;-61
2023/08/31 05:36:35;;;;;;;11.98;8.68;;;;;;;;;;5032140;28;20393;-61
2023/08/31 05:39:00;;;;;;;10.90;8.80;;;;;;;;;;5031819;28;20443;-60
2023/08/31 05:41:26;;;;;;;12.40;9.43;;;;;;;;;;5033343;28;20472;-60
2023/08/31 05:43:52;;;;;;;12.43;9.32;;;;;;;;;;5029823;28;20893;-59
2023/08/31 05:46:17;;;;;;;14.67;9.83;;;;;;;;;;5023869;28;20983;-60
2023/08/31 05:48:42;;;;;;;13.70;9.50;;;;;;;;;;5013848;28;21060;-60
2023/08/31 05:51:08;;;;;;;12.45;9.60;;;;;;;;;;5019702;28;20480;-59
2023/08/31 05:53:33;;;;;;;13.73;9.83;;;;;;;;;;5020547;28;20406;-59
2023/08/31 05:56:05;;;;;;;13.07;10.20;;;;;;;;;;5018118;28;20423;-60
2023/08/31 05:58:32;;;;;;;13.90;10.65;;;;;;;;;;5037326;28;20513;-60
2023/08/31 06:00:57;;;;;;;12.50;10.23;;;;;;;;;;5037444;28;20434;-60
2023/08/31 06:03:23;;;;;;;14.82;10.50;;;;;;;;;;5038892;28;20883;-60
2023/08/31 06:05:49;;;;;;;13.07;9.97;;;;;;;;;;5042312;28;20417;-60
2023/08/31 06:08:14;;;;;;;12.80;9.80;;;;;;;;;;5046889;28;20487;-60
2023/08/31 06:10:39;;;;;;;12.53;10.33;;;;;;;;;;5042132;28;20906;-59
2023/08/31 06:13:04;;;;;;;13.20;10.65;;;;;;;;;;5045400;28;20417;-60
2023/08/31 06:15:30;;;;;;;13.55;9.98;;;;;;;;;;5046517;28;20813;-60
2023/08/31 06:17:55;;;;;;;14.50;11.00;;;;;;;;;;5043368;28;20401;-59
2023/08/31 06:20:20;;;;;;;20.07;11.20;;;;;;;;;;5031242;28;20759;-60
2023/08/31 06:22:46;;;;;;;14.47;11.20;;;;;;;;;;5035157;28;20494;-60
2023/08/31 06:25:11;;;;;;;15.20;11.70;;;;;;;;;;5033976;28;20414;-60
2023/08/31 06:27:36;;;;;;;13.77;10.47;;;;;;;;;;5033553;28;20487;-60
2023/08/31 06:30:02;;;;;;;15.70;11.10;;;;;;;;;;5037455;28;20436;-60
2023/08/31 06:32:28;;;;;;;12.93;10.23;;;;;;;;;;5033423;28;21227;-60
2023/08/31 06:34:53;;;;;;;13.20;10.10;;;;;;;;;;5030561;28;20406;-60
2023/08/31 06:37:20;;;;;;;13.93;9.97;;;;;;;;;;5032832;28;20541;-60
2023/08/31 06:39:45;;;;;;;11.95;8.25;;;;;;;;;;5040215;28;20504;-60
2023/08/31 06:42:10;;;;;;;12.90;8.47;;;;;;;;;;5043884;28;20817;-60
2023/08/31 06:44:36;;;;;;;10.60;8.60;;;;;;;;;;5042677;28;20404;-60
2023/08/31 06:47:01;;;;;;;10.80;8.27;;;;;;;;;;5044889;28;20405;-60
2023/08/31 06:49:27;;;;;;;11.57;9.00;;;;;;;;;;5046183;28;20397;-60
2023/08/31 06:51:53;;;;;;;10.73;8.85;;;;;;;;;;5040513;28;20411;-60
2023/08/31 06:54:19;;;;;;;10.50;7.50;;;;;;;;;;5044824;28;20432;-60
2023/08/31 06:56:44;;;;;;;9.93;7.80;;;;;;;;;;5046229;28;20534;-60
2023/08/31 06:59:09;;;;;;;10.00;7.70;;;;;;;;;;5042099;28;20942;-60
2023/08/31 07:01:35;;;;;;;10.85;7.60;;;;;;;;;;5043350;28;20409;-60
2023/08/31 07:04:00;;;;;;;10.20;7.80;;;;;;;;;;5046107;28;20527;-60
2023/08/31 07:06:25;;;;;;;9.93;7.70;;;;;;;;;;5043347;28;20400;-60
2023/08/31 07:08:50;;;;;;;10.73;7.30;;;;;;;;;;5041440;28;20417;-60
2023/08/31 07:11:16;;;;;;;11.27;7.53;;;;;;;;;;5045351;28;20398;-60
2023/08/31 07:13:42;;;;;;;9.60;7.63;;;;;;;;;;5044089;28;20409;-60
2023/08/31 07:16:07;;;;;;;9.93;7.37;;;;;;;;;;5039725;28;20404;-60
2023/08/31 07:18:32;;;;;;;9.87;7.50;;;;;;;;;;5045462;28;20401;-60
2023/08/31 07:20:58;;;;;;;10.57;7.40;;;;;;;;;;5045379;28;20416;-60
2023/08/31 07:23:23;;;;;;;10.90;7.70;;;;;;;;;;5040515;28;20592;-60
2023/08/31 07:25:48;;;;;;;11.10;7.97;;;;;;;;;;5043422;28;20408;-60
2023/08/31 07:28:14;;;;;;;11.57;7.73;;;;;;;;;;5042927;28;20971;-60
2023/08/31 07:30:39;;;;;;;11.18;8.02;;;;;;;;;;5043753;28;20451;-60
2023/08/31 07:33:05;;;;;;;11.90;8.13;;;;;;;;;;5041000;28;20401;-61
2023/08/31 07:35:30;;;;;;;11.20;8.07;;;;;;;;;;5044410;28;20390;-60
2023/08/31 07:37:55;;;;;;;9.53;7.57;;;;;;;;;;5037614;28;20406;-60
2023/08/31 07:40:21;;;;;;;12.67;8.13;;;;;;;;;;5031506;28;21396;-60
2023/08/31 07:42:46;;;;;;;10.85;8.10;;;;;;;;;;5035863;28;20467;-60
2023/08/31 07:45:11;;;;;;;9.35;7.38;;;;;;;;;;5031081;28;20407;-60
2023/08/31 07:47:37;;;;;;;11.50;7.03;;;;;;;;;;5031077;28;20407;-60
2023/08/31 07:50:02;;;;;;;10.00;6.67;;;;;;;;;;5037809;28;20448;-60
2023/08/31 07:52:27;;;;;;;9.80;6.37;;;;;;;;;;5033126;28;20414;-60
2023/08/31 07:54:53;;;;;;;11.10;5.97;;;;;;;;;;5024344;28;20490;-60
2023/08/31 07:57:19;;;;;;;10.50;6.20;;;;;;;;;;5019472;28;20447;-60
2023/08/31 07:59:44;;;;;;;9.10;5.50;;;;;;;;;;5024504;28;20399;-60
2023/08/31 08:02:09;;;;;;;8.80;5.27;;;;;;;;;;5024547;28;20549;-60
2023/08/31 08:04:34;;;;;;;8.73;5.30;;;;;;;;;;5020155;28;20905;-60
2023/08/31 08:07:00;;;;;;;9.63;5.20;;;;;;;;;;5023284;28;20486;-60
2023/08/31 08:09:25;;;;;;;7.17;4.90;;;;;;;;;;5024692;28;20436;-60
2023/08/31 08:11:50;;;;;;;8.23;4.83;;;;;;;;;;5020761;28;20510;-60
2023/08/31 08:14:16;;;;;;;9.50;5.00;;;;;;;;;;5023645;28;20549;-60
2023/08/31 08:16:41;;;;;;;9.43;4.53;;;;;;;;;;5029857;28;20441;-60
2023/08/31 08:19:07;;;;;;;8.27;4.50;;;;;;;;;;5031797;28;20466;-60
2023/08/31 08:21:32;;;;;;;8.23;4.33;;;;;;;;;;5019608;28;20396;-59
2023/08/31 08:23:58;;;;;;;9.30;4.80;;;;;;;;;;5024424;28;20527;-59
2023/08/31 08:26:23;;;;;;;8.10;4.87;;;;;;;;;;5023636;28;20406;-59
2023/08/31 08:28:48;;;;;;;6.57;4.10;;;;;;;;;;5020895;28;20478;-59
2023/08/31 08:31:14;;;;;;;8.35;4.47;;;;;;;;;;5024483;28;20399;-60
2023/08/31 08:33:40;;;;;;;8.00;4.63;;;;;;;;;;5035445;28;20877;-59
2023/08/31 08:36:05;;;;;;;7.00;4.27;;;;;;;;;;5033078;28;20496;-60
2023/08/31 08:38:30;;;;;;;9.18;4.63;;;;;;;;;;5029086;28;20906;-59
2023/08/31 08:40:55;;;;;;;7.97;4.53;;;;;;;;;;5032016;28;20448;-59
2023/08/31 08:43:23;;;;;;;8.60;5.03;;;;;;;;;;5026538;28;20535;-59
2023/08/31 08:45:49;;;;;;;7.80;5.07;;;;;;;;;;5024045;28;20433;-60
2023/08/31 08:48:14;;;;;;;7.90;4.90;;;;;;;;;;5040314;28;20464;-60
2023/08/31 08:50:39;;;;;;;8.87;5.50;;;;;;;;;;5023635;28;20403;-59
2023/08/31 08:53:05;;;;;;;9.43;6.00;;;;;;;;;;5032746;28;20406;-60
2023/08/31 08:55:30;;;;;;;9.90;6.35;;;;;;;;;;5031146;28;20434;-59
2023/08/31 08:57:55;;;;;;;10.50;6.07;;;;;;;;;;5035884;28;20496;-59
2023/08/31 09:00:21;;;;;;;9.03;5.90;;;;;;;;;;5031655;28;20466;-59
2023/08/31 09:02:46;;;;;;;11.30;6.00;;;;;;;;;;5028115;28;21027;-59
2023/08/31 09:05:11;;;;;;;9.97;6.27;;;;;;;;;;5031879;28;20403;-60
2023/08/31 09:07:37;;;;;;;9.30;5.50;;;;;;;;;;5034438;28;20803;-60
2023/08/31 09:10:03;;;;;;;8.37;4.80;;;;;;;;;;5032939;28;20416;-60
2023/08/31 09:12:28;;;;;;;10.70;5.65;;;;;;;;;;5028575;28;20481;-60
2023/08/31 09:14:58;;;;;;;9.07;5.27;;;;;;;;;;5021979;28;20403;-60
2023/08/31 09:17:24;;;;;;;7.18;5.13;;;;;;;;;;5034079;28;20401;-60
2023/08/31 09:19:58;;;;;;;10.60;5.72;;;;;;;;;;5030453;28;20406;-60
2023/08/31 09:22:23;;;;;;;10.45;5.60;;;;;;;;;;5029867;28;20444;-59
2023/08/31 09:24:49;;;;;;;9.63;5.60;;;;;;;;;;5023751;28;21202;-60
2023/08/31 09:27:14;;;;;;;10.45;6.00;;;;;;;;;;5015994;28;20403;-60
2023/08/31 09:29:44;;;;;;;8.17;5.23;;;;;;;;;;5015949;28;20423;-59
2023/08/31 09:32:09;;;;;;;9.05;5.38;;;;;;;;;;5021428;28;20491;-59
2023/08/31 09:34:34;;;;;;;7.83;5.40;;;;;;;;;;5023452;28;20402;-59
2023/08/31 09:37:05;;;;;;;10.07;5.20;;;;;;;;;;5015893;28;20793;-59
2023/08/31 09:39:35;;;;;;;7.82;4.80;;;;;;;;;;5022470;28;20409;-59
2023/08/31 09:42:03;;;;;;;9.32;4.50;;;;;;;;;;5022427;28;20441;-60
2023/08/31 09:44:28;;;;;;;6.65;4.20;;;;;;;;;;5017300;28;20406;-59
2023/08/31 09:46:53;;;;;;;8.50;4.60;;;;;;;;;;5015787;28;20403;-59
2023/08/31 09:49:19;;;;;;;7.80;3.87;;;;;;;;;;5020627;28;20556;-59
2023/08/31 09:51:45;;;;;;;7.80;3.80;;;;;;;;;;5017367;28;20503;-59
2023/08/31 09:54:12;;;;;;;6.50;3.30;;;;;;;;;;5014582;28;20407;-59
2023/08/31 09:56:37;;;;;;;6.28;2.90;;;;;;;;;;5009387;28;20444;-58
2023/08/31 09:59:03;;;;;;;6.13;2.50;;;;;;;;;;5021581;28;20433;-59
2023/08/31 10:01:28;;;;;;;7.07;2.77;;;;;;;;;;5014309;28;20415;-59
2023/08/31 10:03:53;;;;;;;6.50;2.73;;;;;;;;;;5013868;28;20461;-59
2023/08/31 10:06:19;;;;;;;5.90;2.50;;;;;;;;;;5023024;28;20430;-59
2023/08/31 10:08:44;;;;;;;6.10;2.30;;;;;;;;;;5028576;28;20445;-58
2023/08/31 10:11:12;;;;;;;5.40;2.27;;;;;;;;;;5026636;28;20518;-58
2023/08/31 10:13:40;;;;;;;5.20;2.10;;;;;;;;;;5023116;28;20799;-58
2023/08/31 10:16:05;;;;;;;6.00;2.10;;;;;;;;;;5022333;28;20913;-59
2023/08/31 10:18:31;;;;;;;7.83;2.00;;;;;;;;;;5017663;28;20405;-59
2023/08/31 10:20:56;;;;;;;6.23;2.00;;;;;;;;;;5021014;28;20923;-58
2023/08/31 10:23:21;;;;;;;4.73;2.03;;;;;;;;;;5022420;28;20494;-58
2023/08/31 10:25:50;;;;;;;5.07;2.17;;;;;;;;;;5019524;28;20411;-59
2023/08/31 10:28:18;;;;;;;5.90;2.00;;;;;;;;;;5019617;28;20429;-59
2023/08/31 10:30:59;;;;;;;4.80;2.05;;;;;;;;;;5022051;28;20958;-59
2023/08/31 10:33:25;;;;;;;5.93;2.05;;;;;;;;;;5021183;28;20474;-59
2023/08/31 10:35:51;;;;;;;6.07;2.50;;;;;;;;;;5017554;28;20503;-59
2023/08/31 10:38:16;;;;;;;5.45;2.15;;;;;;;;;;5035425;28;20399;-58
2023/08/31 10:40:42;;;;;;;5.80;2.25;;;;;;;;;;5037732;28;20448;-59
2023/08/31 10:43:14;;;;;;;7.47;2.50;;;;;;;;;;5030849;28;20395;-59
2023/08/31 10:45:43;;;;;;;4.80;2.10;;;;;;;;;;5027472;28;20398;-59
2023/08/31 10:48:09;;;;;;;7.97;2.40;;;;;;;;;;5035420;28;20431;-59
2023/08/31 10:50:35;;;;;;;4.77;2.30;;;;;;;;;;5031034;28;20445;-59
2023/08/31 10:53:07;;;;;;;6.15;2.15;;;;;;;;;;5019371;28;20407;-59
2023/08/31 10:55:32;;;;;;;4.78;2.08;;;;;;;;;;5037394;28;20800;-59
2023/08/31 10:57:58;;;;;;;3.77;2.00;;;;;;;;;;5038031;28;20453;-58
2023/08/31 11:00:45;;;;;;;5.93;2.00;;;;;;;;;;5024960;28;20382;-59
2023/08/31 11:03:12;;;;;;;5.53;1.83;;;;;;;;;;5021663;28;20480;-59
2023/08/31 11:05:37;;;;;;;6.43;1.90;;;;;;;;;;5025972;28;20517;-59
2023/08/31 11:08:02;;;;;;;5.30;1.70;;;;;;;;;;5021765;28;20497;-59
2023/08/31 11:10:29;;;;;;;4.22;1.40;;;;;;;;;;5022449;28;20419;-59
2023/08/31 11:12:54;;;;;;;3.95;1.33;;;;;;;;;;5024126;28;20403;-58
2023/08/31 11:15:21;;;;;;;4.40;1.42;;;;;;;;;;5024825;28;20410;-59
2023/08/31 11:17:46;;;;;;;4.05;1.30;;;;;;;;;;5024310;28;20429;-59
2023/08/31 11:20:13;;;;;;;4.63;1.00;;;;;;;;;;5020166;28;20415;-59
2023/08/31 11:22:39;;;;;;;2.63;0.95;;;;;;;;;;5024976;28;20493;-58
2023/08/31 11:25:05;;;;;;;5.35;1.30;;;;;;;;;;5024640;28;20902;-59
2023/08/31 11:27:30;;;;;;;3.83;1.00;;;;;;;;;;5028502;28;20407;-58
2023/08/31 11:29:55;;;;;;;4.50;1.30;;;;;;;;;;5032135;28;20959;-59
2023/08/31 11:32:23;;;;;;;4.47;1.30;;;;;;;;;;5036475;28;20436;-59
2023/08/31 11:34:48;;;;;;;4.93;1.10;;;;;;;;;;5033111;28;20412;-58
2023/08/31 11:37:15;;;;;;;3.43;1.00;;;;;;;;;;5032541;28;20403;-59
2023/08/31 11:39:41;;;;;;;4.82;1.27;;;;;;;;;;5024049;28;20400;-59
2023/08/31 11:42:07;;;;;;;4.33;1.07;;;;;;;;;;5032824;28;20414;-59
2023/08/31 11:44:32;;;;;;;4.53;1.10;;;;;;;;;;5025559;28;20399;-59
2023/08/31 11:46:57;;;;;;;5.37;0.93;;;;;;;;;;5024655;28;21084;-59
2023/08/31 11:49:22;;;;;;;4.57;0.97;;;;;;;;;;5023994;28;20943;-58
2023/08/31 11:51:48;;;;;;;3.30;0.80;;;;;;;;;;5021143;28;20425;-59
2023/08/31 11:54:13;;;;;;;4.43;1.00;;;;;;;;;;5022290;28;21088;-59
2023/08/31 11:56:39;;;;;;;4.22;0.93;;;;;;;;;;5024296;28;20416;-59
2023/08/31 11:59:07;;;;;;;3.80;0.90;;;;;;;;;;5022438;28;20411;-59
2023/08/31 12:01:33;;;;;;;3.22;0.82;;;;;;;;;;5021556;28;20898;-59
2023/08/31 12:03:58;;;;;;;3.13;0.80;;;;;;;;;;5024342;28;20413;-58
2023/08/31 12:06:23;;;;;;;2.30;0.70;;;;;;;;;;5024546;28;20399;-58
2023/08/31 12:08:48;;;;;;;3.70;1.10;;;;;;;;;;5027823;28;20774;-59
2023/08/31 12:11:15;;;;;;;3.90;0.77;;;;;;;;;;5031602;28;20435;-59
2023/08/31 12:13:42;;;;;;;2.05;0.70;;;;;;;;;;5037963;28;21330;-59
2023/08/31 12:16:11;;;;;;;2.83;0.98;;;;;;;;;;5041424;28;20409;-58
2023/08/31 12:18:37;;;;;;;3.75;0.80;;;;;;;;;;5041237;28;20762;-58
2023/08/31 12:21:03;;;;;;;3.07;0.90;;;;;;;;;;5044130;28;20879;-59
2023/08/31 12:23:28;;;;;;;5.68;0.90;;;;;;;;;;5043404;28;20425;-58
2023/08/31 12:25:54;;;;;;;3.50;0.90;;;;;;;;;;5038798;28;20483;-58
2023/08/31 12:28:20;;;;;;;4.17;0.90;;;;;;;;;;5042439;28;20429;-59
2023/08/31 12:30:47;;;;;;;2.22;0.70;;;;;;;;;;5044553;28;20748;-59
2023/08/31 12:33:12;;;;;;;4.47;0.67;;;;;;;;;;5039167;28;20423;-59
2023/08/31 12:35:38;;;;;;;2.80;0.73;;;;;;;;;;5042957;28;20801;-58
2023/08/31 12:38:03;;;;;;;2.78;0.80;;;;;;;;;;5043231;28;20467;-59
2023/08/31 12:40:29;;;;;;;2.57;0.70;;;;;;;;;;5034254;28;20527;-59
2023/08/31 12:42:54;;;;;;;3.43;0.80;;;;;;;;;;5031672;28;20412;-58
2023/08/31 12:45:19;;;;;;;3.00;0.80;;;;;;;;;;5034962;28;20576;-58
2023/08/31 12:47:45;;;;;;;2.67;0.60;;;;;;;;;;5029910;28;20482;-58
2023/08/31 12:50:10;;;;;;;5.03;0.73;;;;;;;;;;5018427;28;20407;-59
2023/08/31 12:52:35;;;;;;;2.97;0.80;;;;;;;;;;5023679;28;20413;-58
2023/08/31 12:55:01;;;;;;;2.38;0.63;;;;;;;;;;5023639;28;20508;-60
2023/08/31 12:57:27;;;;;;;2.85;0.60;;;;;;;;;;5019949;28;20399;-58
2023/08/31 12:59:52;;;;;;;3.00;0.80;;;;;;;;;;5021568;28;20413;-59
2023/08/31 13:02:19;;;;;;;4.07;0.80;;;;;;;;;;5023491;28;20415;-58
2023/08/31 13:04:45;;;;;;;1.80;0.60;;;;;;;;;;5021838;28;20395;-59
2023/08/31 13:07:10;;;;;;;2.73;0.60;;;;;;;;;;5018662;28;20406;-58
2023/08/31 13:09:35;;;;;;;2.80;0.60;;;;;;;;;;5023850;28;20944;-58
2023/08/31 13:12:00;;;;;;;2.90;0.80;;;;;;;;;;5023479;28;20442;-59
2023/08/31 13:14:26;;;;;;;2.50;0.80;;;;;;;;;;5018080;28;20422;-59
2023/08/31 13:16:51;;;;;;;3.13;0.77;;;;;;;;;;5023290;28;20416;-58
2023/08/31 13:19:16;;;;;;;1.87;0.60;;;;;;;;;;5023340;28;20412;-58
2023/08/31 13:21:42;;;;;;;2.27;0.67;;;;;;;;;;5020472;28;20446;-58
2023/08/31 13:24:07;;;;;;;3.70;0.70;;;;;;;;;;5029290;28;20413;-59
2023/08/31 13:26:32;;;;;;;4.03;0.87;;;;;;;;;;5031684;28;20881;-58
2023/08/31 13:28:58;;;;;;;2.30;0.80;;;;;;;;;;5029955;28;20419;-58
2023/08/31 13:31:23;;;;;;;2.23;0.60;;;;;;;;;;5027691;28;20441;-59
2023/08/31 13:33:48;;;;;;;2.00;0.70;;;;;;;;;;5002982;28;20412;-58
2023/08/31 13:36:14;;;;;;;2.90;1.00;;;;;;;;;;4990545;28;21501;-59
2023/08/31 13:38:40;;;;;;;2.00;0.70;;;;;;;;;;4989511;28;20464;-59
2023/08/31 13:41:05;;;;;;;2.20;0.70;;;;;;;;;;4990678;28;20415;-59
2023/08/31 13:43:30;;;;;;;3.47;0.70;;;;;;;;;;4991853;28;20919;-58
2023/08/31 13:45:56;;;;;;;4.67;1.10;;;;;;;;;;4993674;28;20911;-58
2023/08/31 13:48:22;;;;;;;2.57;0.80;;;;;;;;;;4992361;28;20750;-58
2023/08/31 13:50:48;;;;;;;2.72;0.70;;;;;;;;;;4997564;28;20477;-59
2023/08/31 13:53:13;;;;;;;2.63;0.70;;;;;;;;;;4993449;28;20410;-59
2023/08/31 13:55:38;;;;;;;5.10;0.90;;;;;;;;;;4998025;28;20559;-58
2023/08/31 13:58:06;;;;;;;2.30;0.90;;;;;;;;;;4996129;28;20402;-59
2023/08/31 14:00:31;;;;;;;2.95;0.88;;;;;;;;;;4997588;28;20749;-59
2023/08/31 14:02:58;;;;;;;1.83;0.50;;;;;;;;;;4996958;28;20414;-58
2023/08/31 14:05:23;;;;;;;1.83;0.70;;;;;;;;;;4992614;28;20411;-58
2023/08/31 14:07:49;;;;;;;2.57;0.70;;;;;;;;;;4998766;28;20417;-58
2023/08/31 14:10:14;;;;;;;2.43;0.70;;;;;;;;;;4993093;28;20429;-59
2023/08/31 14:12:39;;;;;;;2.33;0.70;;;;;;;;;;4999646;28;20558;-59
2023/08/31 14:15:06;;;;;;;3.67;0.80;;;;;;;;;;4996009;28;20490;-59
2023/08/31 14:17:31;;;;;;;2.78;0.70;;;;;;;;;;4995355;28;20414;-59
2023/08/31 14:19:58;;;;;;;2.87;0.80;;;;;;;;;;4991289;28;20433;-58
2023/08/31 14:22:23;;;;;;;2.72;0.68;;;;;;;;;;4994873;28;20542;-58
2023/08/31 14:24:49;;;;;;;3.27;0.90;;;;;;;;;;4988915;28;20415;-59
2023/08/31 14:27:14;;;;;;;2.83;0.85;;;;;;;;;;4998338;28;20437;-58